sensor_id;sensor_type;location;lat;lon;timestamp;temperature;humidity
55988;DHT22;67216;50.930;4.514;2023-02-07T00:01:23;0.30;91.80
55988;DHT22;67216;50.930;4.514;2023-02-07T00:03:49;0.20;91.70
55988;DHT22;67216;50.930;4.514;2023-02-07T00:06:27;0.20;91.90
55988;DHT22;67216;50.930;4.514;2023-02-07T00:08:57;0.90;91.30
55988;DHT22;67216;50.930;4.514;2023-02-07T00:11:23;0.80;90.60
55988;DHT22;67216;50.930;4.514;2023-02-07T00:13:53;0.80;90.90
55988;DHT22;67216;50.930;4.514;2023-02-07T00:16:22;0.90;91.40
55988;DHT22;67216;50.930;4.514;2023-02-07T00:18:50;0.90;91.00
55988;DHT22;67216;50.930;4.514;2023-02-07T00:21:19;1.00;91.20
55988;DHT22;67216;50.930;4.514;2023-02-07T00:23:51;1.40;90.30
55988;DHT22;67216;50.930;4.514;2023-02-07T00:26:18;1.20;90.20
55988;DHT22;67216;50.930;4.514;2023-02-07T00:28:45;1.20;91.10
55988;DHT22;67216;50.930;4.514;2023-02-07T00:31:17;1.30;91.30
55988;DHT22;67216;50.930;4.514;2023-02-07T00:33:47;1.30;91.70
55988;DHT22;67216;50.930;4.514;2023-02-07T00:36:17;1.20;91.50
55988;DHT22;67216;50.930;4.514;2023-02-07T00:38:44;1.20;91.80
55988;DHT22;67216;50.930;4.514;2023-02-07T00:41:10;1.10;92.30
55988;DHT22;67216;50.930;4.514;2023-02-07T00:43:40;1.20;92.60
55988;DHT22;67216;50.930;4.514;2023-02-07T00:46:06;1.30;92.40
55988;DHT22;67216;50.930;4.514;2023-02-07T00:48:32;1.00;92.20
55988;DHT22;67216;50.930;4.514;2023-02-07T00:50:59;1.10;94.00
55988;DHT22;67216;50.930;4.514;2023-02-07T00:53:28;1.30;94.50
55988;DHT22;67216;50.930;4.514;2023-02-07T00:55:54;1.40;94.20
55988;DHT22;67216;50.930;4.514;2023-02-07T00:58:21;1.50;94.10
55988;DHT22;67216;50.930;4.514;2023-02-07T01:00:47;1.40;93.60
55988;DHT22;67216;50.930;4.514;2023-02-07T01:03:13;1.30;93.10
55988;DHT22;67216;50.930;4.514;2023-02-07T01:05:41;1.20;93.10
55988;DHT22;67216;50.930;4.514;2023-02-07T01:08:06;1.00;93.80
55988;DHT22;67216;50.930;4.514;2023-02-07T01:10:32;0.90;94.10
55988;DHT22;67216;50.930;4.514;2023-02-07T01:12:58;0.90;93.80
55988;DHT22;67216;50.930;4.514;2023-02-07T01:15:24;0.90;93.80
55988;DHT22;67216;50.930;4.514;2023-02-07T01:17:51;1.10;93.60
55988;DHT22;67216;50.930;4.514;2023-02-07T01:20:17;1.10;93.40
55988;DHT22;67216;50.930;4.514;2023-02-07T01:22:45;1.00;92.90
55988;DHT22;67216;50.930;4.514;2023-02-07T01:25:13;1.00;93.30
55988;DHT22;67216;50.930;4.514;2023-02-07T01:27:39;1.10;93.40
55988;DHT22;67216;50.930;4.514;2023-02-07T01:30:05;1.00;92.60
55988;DHT22;67216;50.930;4.514;2023-02-07T01:32:32;0.80;91.70
55988;DHT22;67216;50.930;4.514;2023-02-07T01:34:58;1.00;91.10
55988;DHT22;67216;50.930;4.514;2023-02-07T01:37:24;1.30;88.90
55988;DHT22;67216;50.930;4.514;2023-02-07T01:39:50;1.10;88.30
55988;DHT22;67216;50.930;4.514;2023-02-07T01:42:17;0.90;88.30
55988;DHT22;67216;50.930;4.514;2023-02-07T01:47:21;0.60;91.70
55988;DHT22;67216;50.930;4.514;2023-02-07T01:49:50;0.70;92.40
55988;DHT22;67216;50.930;4.514;2023-02-07T01:52:20;0.80;92.60
55988;DHT22;67216;50.930;4.514;2023-02-07T01:54:51;0.80;92.00
55988;DHT22;67216;50.930;4.514;2023-02-07T01:57:21;0.50;91.20
55988;DHT22;67216;50.930;4.514;2023-02-07T01:59:49;0.30;92.10
55988;DHT22;67216;50.930;4.514;2023-02-07T02:02:19;0.40;93.90
55988;DHT22;67216;50.930;4.514;2023-02-07T02:04:46;0.50;94.60
55988;DHT22;67216;50.930;4.514;2023-02-07T02:07:14;0.60;94.80
55988;DHT22;67216;50.930;4.514;2023-02-07T02:09:43;0.60;95.10
55988;DHT22;67216;50.930;4.514;2023-02-07T02:18:05;0.30;94.90
55988;DHT22;67216;50.930;4.514;2023-02-07T02:21:11;0.20;94.20
55988;DHT22;67216;50.930;4.514;2023-02-07T02:34:22;0.20;91.20
55988;DHT22;67216;50.930;4.514;2023-02-07T02:39:50;-0.10;92.20
55988;DHT22;67216;50.930;4.514;2023-02-07T02:42:47;-0.20;92.60
55988;DHT22;67216;50.930;4.514;2023-02-07T02:45:23;-0.30;92.20
55988;DHT22;67216;50.930;4.514;2023-02-07T02:47:50;-0.30;92.40
55988;DHT22;67216;50.930;4.514;2023-02-07T02:50:26;-0.30;92.90
55988;DHT22;67216;50.930;4.514;2023-02-07T02:52:53;-0.10;93.00
55988;DHT22;67216;50.930;4.514;2023-02-07T02:55:40;0.00;92.70
55988;DHT22;67216;50.930;4.514;2023-02-07T03:12:28;-0.10;92.70
55988;DHT22;67216;50.930;4.514;2023-02-07T03:17:29;-0.30;93.00
55988;DHT22;67216;50.930;4.514;2023-02-07T03:20:05;-0.30;92.70
55988;DHT22;67216;50.930;4.514;2023-02-07T03:22:34;-0.40;92.80
55988;DHT22;67216;50.930;4.514;2023-02-07T03:25:02;-0.60;93.40
55988;DHT22;67216;50.930;4.514;2023-02-07T03:27:30;-0.60;93.70
55988;DHT22;67216;50.930;4.514;2023-02-07T03:29:59;-0.50;93.60
55988;DHT22;67216;50.930;4.514;2023-02-07T03:32:32;-0.30;93.50
55988;DHT22;67216;50.930;4.514;2023-02-07T03:35:25;-0.30;93.10
55988;DHT22;67216;50.930;4.514;2023-02-07T03:37:55;-0.30;93.20
55988;DHT22;67216;50.930;4.514;2023-02-07T03:40:31;-0.30;93.00
55988;DHT22;67216;50.930;4.514;2023-02-07T03:43:20;-0.20;92.80
55988;DHT22;67216;50.930;4.514;2023-02-07T03:45:49;-0.40;92.60
55988;DHT22;67216;50.930;4.514;2023-02-07T03:48:15;-0.40;92.70
55988;DHT22;67216;50.930;4.514;2023-02-07T03:50:41;-0.40;92.90
55988;DHT22;67216;50.930;4.514;2023-02-07T03:53:12;-0.40;93.10
55988;DHT22;67216;50.930;4.514;2023-02-07T03:55:38;-0.40;93.00
55988;DHT22;67216;50.930;4.514;2023-02-07T03:58:03;-0.60;93.40
55988;DHT22;67216;50.930;4.514;2023-02-07T04:00:32;-0.50;93.40
55988;DHT22;67216;50.930;4.514;2023-02-07T04:03:00;-0.50;93.40
55988;DHT22;67216;50.930;4.514;2023-02-07T04:05:28;-0.50;93.80
55988;DHT22;67216;50.930;4.514;2023-02-07T04:07:54;-0.40;93.70
55988;DHT22;67216;50.930;4.514;2023-02-07T04:10:20;-0.40;93.70
55988;DHT22;67216;50.930;4.514;2023-02-07T04:12:46;-0.40;93.80
55988;DHT22;67216;50.930;4.514;2023-02-07T04:15:12;-0.30;93.70
55988;DHT22;67216;50.930;4.514;2023-02-07T04:17:38;-0.10;93.70
55988;DHT22;67216;50.930;4.514;2023-02-07T04:20:05;-0.10;93.40
55988;DHT22;67216;50.930;4.514;2023-02-07T04:22:33;-0.10;93.40
55988;DHT22;67216;50.930;4.514;2023-02-07T04:24:59;0.00;93.10
55988;DHT22;67216;50.930;4.514;2023-02-07T04:27:25;-0.10;93.10
55988;DHT22;67216;50.930;4.514;2023-02-07T04:29:51;-0.10;93.40
55988;DHT22;67216;50.930;4.514;2023-02-07T04:32:19;-0.10;92.90
55988;DHT22;67216;50.930;4.514;2023-02-07T04:34:45;0.00;92.70
55988;DHT22;67216;50.930;4.514;2023-02-07T04:37:10;0.00;92.90
55988;DHT22;67216;50.930;4.514;2023-02-07T04:39:36;0.00;92.60
55988;DHT22;67216;50.930;4.514;2023-02-07T04:42:04;0.00;92.20
55988;DHT22;67216;50.930;4.514;2023-02-07T04:44:34;-0.10;92.30
55988;DHT22;67216;50.930;4.514;2023-02-07T04:47:01;-0.10;92.30
55988;DHT22;67216;50.930;4.514;2023-02-07T04:49:28;-0.10;92.40
55988;DHT22;67216;50.930;4.514;2023-02-07T04:51:54;-0.10;92.40
55988;DHT22;67216;50.930;4.514;2023-02-07T04:54:20;-0.30;92.30
55988;DHT22;67216;50.930;4.514;2023-02-07T04:56:45;-0.30;92.50
55988;DHT22;67216;50.930;4.514;2023-02-07T04:59:11;-0.40;92.60
55988;DHT22;67216;50.930;4.514;2023-02-07T05:01:38;-0.40;92.60
55988;DHT22;67216;50.930;4.514;2023-02-07T05:04:03;-0.50;92.50
55988;DHT22;67216;50.930;4.514;2023-02-07T05:06:29;-0.50;92.60
55988;DHT22;67216;50.930;4.514;2023-02-07T05:08:55;-0.50;92.50
55988;DHT22;67216;50.930;4.514;2023-02-07T05:11:21;-0.60;92.40
55988;DHT22;67216;50.930;4.514;2023-02-07T05:13:46;-0.50;92.30
55988;DHT22;67216;50.930;4.514;2023-02-07T05:16:13;-0.60;92.30
55988;DHT22;67216;50.930;4.514;2023-02-07T05:18:39;-0.70;92.50
55988;DHT22;67216;50.930;4.514;2023-02-07T05:21:05;-0.60;92.20
55988;DHT22;67216;50.930;4.514;2023-02-07T05:23:30;-0.70;92.30
55988;DHT22;67216;50.930;4.514;2023-02-07T05:25:56;-0.70;92.50
55988;DHT22;67216;50.930;4.514;2023-02-07T05:28:24;-0.80;92.50
55988;DHT22;67216;50.930;4.514;2023-02-07T05:30:55;-0.80;92.80
55988;DHT22;67216;50.930;4.514;2023-02-07T05:33:21;-0.80;92.80
55988;DHT22;67216;50.930;4.514;2023-02-07T05:35:49;-0.80;92.90
55988;DHT22;67216;50.930;4.514;2023-02-07T05:38:18;-0.90;92.90
55988;DHT22;67216;50.930;4.514;2023-02-07T05:40:46;-0.90;93.00
55988;DHT22;67216;50.930;4.514;2023-02-07T05:43:16;-0.80;93.30
55988;DHT22;67216;50.930;4.514;2023-02-07T05:45:43;-0.80;93.00
55988;DHT22;67216;50.930;4.514;2023-02-07T05:48:12;-0.70;93.00
55988;DHT22;67216;50.930;4.514;2023-02-07T05:50:38;-0.80;92.50
55988;DHT22;67216;50.930;4.514;2023-02-07T05:53:07;-0.90;92.50
55988;DHT22;67216;50.930;4.514;2023-02-07T05:55:34;-0.80;92.40
55988;DHT22;67216;50.930;4.514;2023-02-07T05:58:02;-0.80;92.30
55988;DHT22;67216;50.930;4.514;2023-02-07T06:00:31;-0.90;92.30
55988;DHT22;67216;50.930;4.514;2023-02-07T06:02:56;-0.80;92.40
55988;DHT22;67216;50.930;4.514;2023-02-07T06:05:22;-0.90;92.40
55988;DHT22;67216;50.930;4.514;2023-02-07T06:07:54;-0.70;92.40
55988;DHT22;67216;50.930;4.514;2023-02-07T06:10:20;-0.70;92.00
55988;DHT22;67216;50.930;4.514;2023-02-07T06:12:46;-0.70;92.00
55988;DHT22;67216;50.930;4.514;2023-02-07T06:15:12;-0.70;92.00
55988;DHT22;67216;50.930;4.514;2023-02-07T06:17:37;-0.90;91.90
55988;DHT22;67216;50.930;4.514;2023-02-07T06:20:04;-1.00;92.00
55988;DHT22;67216;50.930;4.514;2023-02-07T06:22:30;-1.00;92.30
55988;DHT22;67216;50.930;4.514;2023-02-07T06:24:56;-1.10;92.50
55988;DHT22;67216;50.930;4.514;2023-02-07T06:27:22;-1.00;92.50
55988;DHT22;67216;50.930;4.514;2023-02-07T06:29:47;-0.90;92.20
55988;DHT22;67216;50.930;4.514;2023-02-07T06:32:15;-0.80;92.40
55988;DHT22;67216;50.930;4.514;2023-02-07T06:34:42;-0.30;91.50
55988;DHT22;67216;50.930;4.514;2023-02-07T06:37:07;-0.30;90.30
55988;DHT22;67216;50.930;4.514;2023-02-07T06:39:33;-0.60;90.70
55988;DHT22;67216;50.930;4.514;2023-02-07T06:42:02;-0.80;91.30
55988;DHT22;67216;50.930;4.514;2023-02-07T06:44:28;-1.00;91.80
55988;DHT22;67216;50.930;4.514;2023-02-07T06:46:54;-0.90;92.00
55988;DHT22;67216;50.930;4.514;2023-02-07T06:49:22;-1.10;92.10
55988;DHT22;67216;50.930;4.514;2023-02-07T06:51:47;-1.10;92.40
55988;DHT22;67216;50.930;4.514;2023-02-07T06:54:13;-1.10;92.20
55988;DHT22;67216;50.930;4.514;2023-02-07T06:56:39;-1.20;92.30
55988;DHT22;67216;50.930;4.514;2023-02-07T06:59:04;-1.20;92.10
55988;DHT22;67216;50.930;4.514;2023-02-07T07:01:30;-1.10;92.10
55988;DHT22;67216;50.930;4.514;2023-02-07T07:03:56;-1.10;92.30
55988;DHT22;67216;50.930;4.514;2023-02-07T07:06:21;-1.10;92.20
55988;DHT22;67216;50.930;4.514;2023-02-07T07:08:47;-1.10;92.50
55988;DHT22;67216;50.930;4.514;2023-02-07T07:11:16;-1.00;92.50
55988;DHT22;67216;50.930;4.514;2023-02-07T07:13:42;-1.00;92.30
55988;DHT22;67216;50.930;4.514;2023-02-07T07:16:08;-0.90;92.30
55988;DHT22;67216;50.930;4.514;2023-02-07T07:18:36;-0.80;92.30
55988;DHT22;67216;50.930;4.514;2023-02-07T07:21:04;-0.80;91.80
55988;DHT22;67216;50.930;4.514;2023-02-07T07:23:31;-0.80;91.80
55988;DHT22;67216;50.930;4.514;2023-02-07T07:25:56;-0.80;92.00
55988;DHT22;67216;50.930;4.514;2023-02-07T07:28:25;-0.60;91.80
55988;DHT22;67216;50.930;4.514;2023-02-07T07:30:51;-0.20;91.00
55988;DHT22;67216;50.930;4.514;2023-02-07T07:33:17;-0.30;90.40
55988;DHT22;67216;50.930;4.514;2023-02-07T07:35:42;-0.30;90.50
55988;DHT22;67216;50.930;4.514;2023-02-07T07:38:10;-0.10;89.30
55988;DHT22;67216;50.930;4.514;2023-02-07T07:40:38;-0.20;88.20
55988;DHT22;67216;50.930;4.514;2023-02-07T07:43:06;-0.70;90.20
55988;DHT22;67216;50.930;4.514;2023-02-07T07:45:32;-0.70;90.90
55988;DHT22;67216;50.930;4.514;2023-02-07T07:47:59;-0.70;90.90
55988;DHT22;67216;50.930;4.514;2023-02-07T07:50:27;-0.80;91.00
55988;DHT22;67216;50.930;4.514;2023-02-07T07:52:55;-0.90;91.40
55988;DHT22;67216;50.930;4.514;2023-02-07T07:55:22;-0.90;92.00
55988;DHT22;67216;50.930;4.514;2023-02-07T07:57:50;-0.80;91.90
55988;DHT22;67216;50.930;4.514;2023-02-07T08:00:17;-0.70;92.10
55988;DHT22;67216;50.930;4.514;2023-02-07T08:02:43;-0.60;92.10
55988;DHT22;67216;50.930;4.514;2023-02-07T08:05:09;-0.50;92.00
55988;DHT22;67216;50.930;4.514;2023-02-07T08:07:35;-0.30;91.90
55988;DHT22;67216;50.930;4.514;2023-02-07T08:10:02;-0.10;91.80
55988;DHT22;67216;50.930;4.514;2023-02-07T08:12:30;-0.30;91.10
55988;DHT22;67216;50.930;4.514;2023-02-07T08:14:56;-0.10;91.60
55988;DHT22;67216;50.930;4.514;2023-02-07T08:17:22;0.00;90.90
55988;DHT22;67216;50.930;4.514;2023-02-07T08:19:50;0.20;90.90
55988;DHT22;67216;50.930;4.514;2023-02-07T08:22:16;0.40;90.60
55988;DHT22;67216;50.930;4.514;2023-02-07T08:24:44;0.60;90.50
55988;DHT22;67216;50.930;4.514;2023-02-07T08:27:10;0.70;90.60
55988;DHT22;67216;50.930;4.514;2023-02-07T08:29:36;0.90;90.30
55988;DHT22;67216;50.930;4.514;2023-02-07T08:32:01;1.00;90.70
55988;DHT22;67216;50.930;4.514;2023-02-07T08:34:30;1.10;91.00
55988;DHT22;67216;50.930;4.514;2023-02-07T08:37:05;1.50;90.20
55988;DHT22;67216;50.930;4.514;2023-02-07T08:39:34;1.90;87.40
55988;DHT22;67216;50.930;4.514;2023-02-07T08:42:00;2.10;85.60
55988;DHT22;67216;50.930;4.514;2023-02-07T08:44:29;2.00;86.60
55988;DHT22;67216;50.930;4.514;2023-02-07T08:46:56;1.90;87.70
55988;DHT22;67216;50.930;4.514;2023-02-07T08:49:22;2.30;88.30
55988;DHT22;67216;50.930;4.514;2023-02-07T08:51:50;2.70;88.10
55988;DHT22;67216;50.930;4.514;2023-02-07T08:54:17;3.20;86.80
55988;DHT22;67216;50.930;4.514;2023-02-07T08:56:43;3.60;87.10
55988;DHT22;67216;50.930;4.514;2023-02-07T08:59:09;3.90;85.40
55988;DHT22;67216;50.930;4.514;2023-02-07T09:01:34;4.60;82.90
55988;DHT22;67216;50.930;4.514;2023-02-07T09:04:00;5.10;77.40
55988;DHT22;67216;50.930;4.514;2023-02-07T09:06:28;5.40;75.30
55988;DHT22;67216;50.930;4.514;2023-02-07T09:08:54;5.90;73.40
55988;DHT22;67216;50.930;4.514;2023-02-07T09:11:23;6.90;70.80
55988;DHT22;67216;50.930;4.514;2023-02-07T09:13:49;7.80;67.60
55988;DHT22;67216;50.930;4.514;2023-02-07T09:16:15;9.10;63.60
55988;DHT22;67216;50.930;4.514;2023-02-07T09:18:41;9.30;58.70
55988;DHT22;67216;50.930;4.514;2023-02-07T09:21:07;10.50;57.50
55988;DHT22;67216;50.930;4.514;2023-02-07T09:23:35;10.70;55.50
55988;DHT22;67216;50.930;4.514;2023-02-07T09:26:05;11.50;54.20
55988;DHT22;67216;50.930;4.514;2023-02-07T09:28:34;12.20;52.60
55988;DHT22;67216;50.930;4.514;2023-02-07T09:31:12;12.20;49.50
55988;DHT22;67216;50.930;4.514;2023-02-07T09:33:38;11.90;49.50
55988;DHT22;67216;50.930;4.514;2023-02-07T09:36:05;12.40;49.30
55988;DHT22;67216;50.930;4.514;2023-02-07T09:38:33;13.00;47.80
55988;DHT22;67216;50.930;4.514;2023-02-07T09:40:59;13.40;46.70
55988;DHT22;67216;50.930;4.514;2023-02-07T09:46:29;12.40;47.60
55988;DHT22;67216;50.930;4.514;2023-02-07T09:51:57;9.00;55.10
55988;DHT22;67216;50.930;4.514;2023-02-07T09:54:30;6.80;62.40
55988;DHT22;67216;50.930;4.514;2023-02-07T09:57:15;6.00;67.90
55988;DHT22;67216;50.930;4.514;2023-02-07T09:59:45;5.70;69.90
55988;DHT22;67216;50.930;4.514;2023-02-07T10:02:21;5.50;70.60
55988;DHT22;67216;50.930;4.514;2023-02-07T10:04:49;5.10;72.70
55988;DHT22;67216;50.930;4.514;2023-02-07T10:07:16;4.50;74.90
55988;DHT22;67216;50.930;4.514;2023-02-07T10:09:43;4.10;76.70
55988;DHT22;67216;50.930;4.514;2023-02-07T10:20:31;3.70;82.20
55988;DHT22;67216;50.930;4.514;2023-02-07T10:31:09;4.10;79.70
55988;DHT22;67216;50.930;4.514;2023-02-07T10:33:48;4.20;78.20
55988;DHT22;67216;50.930;4.514;2023-02-07T10:36:17;4.40;79.60
55988;DHT22;67216;50.930;4.514;2023-02-07T10:43:55;4.40;75.10
55988;DHT22;67216;50.930;4.514;2023-02-07T10:46:22;4.40;77.20
55988;DHT22;67216;50.930;4.514;2023-02-07T10:48:48;4.50;73.40
55988;DHT22;67216;50.930;4.514;2023-02-07T10:51:24;4.40;74.10
55988;DHT22;67216;50.930;4.514;2023-02-07T10:56:42;4.50;74.90
55988;DHT22;67216;50.930;4.514;2023-02-07T11:01:56;4.70;73.60
55988;DHT22;67216;50.930;4.514;2023-02-07T11:04:36;4.80;73.30
55988;DHT22;67216;50.930;4.514;2023-02-07T11:07:12;4.60;74.00
55988;DHT22;67216;50.930;4.514;2023-02-07T11:09:38;4.70;73.80
55988;DHT22;67216;50.930;4.514;2023-02-07T11:14:39;4.80;73.70
55988;DHT22;67216;50.930;4.514;2023-02-07T11:17:05;5.10;71.20
55988;DHT22;67216;50.930;4.514;2023-02-07T11:19:33;5.10;71.40
55988;DHT22;67216;50.930;4.514;2023-02-07T11:22:32;5.10;72.60
55988;DHT22;67216;50.930;4.514;2023-02-07T11:25:03;5.40;71.80
55988;DHT22;67216;50.930;4.514;2023-02-07T11:27:38;5.40;71.60
55988;DHT22;67216;50.930;4.514;2023-02-07T11:30:08;5.50;71.00
55988;DHT22;67216;50.930;4.514;2023-02-07T11:32:35;5.30;69.70
55988;DHT22;67216;50.930;4.514;2023-02-07T11:35:17;5.20;69.90
55988;DHT22;67216;50.930;4.514;2023-02-07T11:37:57;5.60;69.20
55988;DHT22;67216;50.930;4.514;2023-02-07T11:40:45;5.50;70.30
55988;DHT22;67216;50.930;4.514;2023-02-07T11:43:15;5.30;68.80
55988;DHT22;67216;50.930;4.514;2023-02-07T11:45:45;5.50;69.00
55988;DHT22;67216;50.930;4.514;2023-02-07T11:48:18;5.50;68.90
55988;DHT22;67216;50.930;4.514;2023-02-07T11:50:52;5.50;68.70
55988;DHT22;67216;50.930;4.514;2023-02-07T11:53:36;5.50;68.60
55988;DHT22;67216;50.930;4.514;2023-02-07T11:56:03;5.60;67.00
55988;DHT22;67216;50.930;4.514;2023-02-07T11:58:41;5.60;66.60
55988;DHT22;67216;50.930;4.514;2023-02-07T12:01:16;5.70;67.60
55988;DHT22;67216;50.930;4.514;2023-02-07T12:03:53;5.60;66.30
55988;DHT22;67216;50.930;4.514;2023-02-07T12:09:08;5.60;66.50
55988;DHT22;67216;50.930;4.514;2023-02-07T12:11:39;5.60;66.00
55988;DHT22;67216;50.930;4.514;2023-02-07T12:17:11;5.90;65.70
55988;DHT22;67216;50.930;4.514;2023-02-07T12:20:09;5.80;64.00
55988;DHT22;67216;50.930;4.514;2023-02-07T12:22:54;5.80;65.10
55988;DHT22;67216;50.930;4.514;2023-02-07T12:25:28;5.70;64.30
55988;DHT22;67216;50.930;4.514;2023-02-07T12:27:59;5.80;63.90
55988;DHT22;67216;50.930;4.514;2023-02-07T12:30:38;5.90;66.00
55988;DHT22;67216;50.930;4.514;2023-02-07T12:33:18;6.10;65.30
55988;DHT22;67216;50.930;4.514;2023-02-07T12:36:11;6.30;63.60
55988;DHT22;67216;50.930;4.514;2023-02-07T12:38:53;6.00;65.40
55988;DHT22;67216;50.930;4.514;2023-02-07T12:41:27;5.90;64.50
55988;DHT22;67216;50.930;4.514;2023-02-07T13:03:49;5.90;61.50
55988;DHT22;67216;50.930;4.514;2023-02-07T13:09:34;6.20;61.70
55988;DHT22;67216;50.930;4.514;2023-02-07T13:25:42;6.30;58.10
55988;DHT22;67216;50.930;4.514;2023-02-07T13:28:26;6.50;59.60
55988;DHT22;67216;50.930;4.514;2023-02-07T13:30:55;6.40;59.10
55988;DHT22;67216;50.930;4.514;2023-02-07T13:35:54;6.40;58.90
55988;DHT22;67216;50.930;4.514;2023-02-07T13:41:37;6.70;57.60
55988;DHT22;67216;50.930;4.514;2023-02-07T13:44:22;6.70;56.40
55988;DHT22;67216;50.930;4.514;2023-02-07T13:47:00;6.70;58.60
55988;DHT22;67216;50.930;4.514;2023-02-07T13:55:46;6.90;59.10
55988;DHT22;67216;50.930;4.514;2023-02-07T13:57:48;6.90;58.70
55988;DHT22;67216;50.930;4.514;2023-02-07T14:00:57;6.80;59.00
55988;DHT22;67216;50.930;4.514;2023-02-07T14:03:29;6.70;57.90
55988;DHT22;67216;50.930;4.514;2023-02-07T14:06:22;6.50;58.90
55988;DHT22;67216;50.930;4.514;2023-02-07T14:09:17;6.70;58.60
55988;DHT22;67216;50.930;4.514;2023-02-07T14:11:44;6.70;58.30
55988;DHT22;67216;50.930;4.514;2023-02-07T14:14:22;6.80;58.50
55988;DHT22;67216;50.930;4.514;2023-02-07T14:16:53;7.10;58.30
55988;DHT22;67216;50.930;4.514;2023-02-07T14:23:15;6.70;57.70
55988;DHT22;67216;50.930;4.514;2023-02-07T14:25:23;6.60;57.90
55988;DHT22;67216;50.930;4.514;2023-02-07T14:30:38;7.20;57.00
55988;DHT22;67216;50.930;4.514;2023-02-07T14:33:22;7.00;57.10
55988;DHT22;67216;50.930;4.514;2023-02-07T14:38:32;6.90;57.40
55988;DHT22;67216;50.930;4.514;2023-02-07T14:41:26;7.40;57.50
55988;DHT22;67216;50.930;4.514;2023-02-07T14:43:57;7.30;55.90
55988;DHT22;67216;50.930;4.514;2023-02-07T14:46:53;7.60;54.60
55988;DHT22;67216;50.930;4.514;2023-02-07T14:49:38;7.50;53.10
55988;DHT22;67216;50.930;4.514;2023-02-07T14:52:10;7.30;54.40
55988;DHT22;67216;50.930;4.514;2023-02-07T14:54:40;7.50;55.30
55988;DHT22;67216;50.930;4.514;2023-02-07T15:07:40;7.40;53.80
55988;DHT22;67216;50.930;4.514;2023-02-07T15:13:13;7.60;54.50
55988;DHT22;67216;50.930;4.514;2023-02-07T15:15:52;7.60;54.90
55988;DHT22;67216;50.930;4.514;2023-02-07T15:18:22;7.20;54.90
55988;DHT22;67216;50.930;4.514;2023-02-07T15:20:54;7.10;54.90
55988;DHT22;67216;50.930;4.514;2023-02-07T15:23:22;7.60;53.80
55988;DHT22;67216;50.930;4.514;2023-02-07T15:25:51;7.50;53.80
55988;DHT22;67216;50.930;4.514;2023-02-07T15:28:28;7.30;54.90
55988;DHT22;67216;50.930;4.514;2023-02-07T15:31:02;7.20;53.50
55988;DHT22;67216;50.930;4.514;2023-02-07T15:33:49;7.00;53.80
55988;DHT22;67216;50.930;4.514;2023-02-07T15:36:36;6.90;54.20
55988;DHT22;67216;50.930;4.514;2023-02-07T15:39:22;6.80;55.00
55988;DHT22;67216;50.930;4.514;2023-02-07T15:41:51;6.80;53.90
55988;DHT22;67216;50.930;4.514;2023-02-07T15:44:20;6.70;54.10
55988;DHT22;67216;50.930;4.514;2023-02-07T15:46:56;7.00;53.30
55988;DHT22;67216;50.930;4.514;2023-02-07T15:52:15;7.30;52.30
55988;DHT22;67216;50.930;4.514;2023-02-07T15:54:50;6.90;53.60
55988;DHT22;67216;50.930;4.514;2023-02-07T15:57:32;6.90;54.60
55988;DHT22;67216;50.930;4.514;2023-02-07T16:00:15;6.80;55.00
55988;DHT22;67216;50.930;4.514;2023-02-07T16:02:43;6.60;55.40
55988;DHT22;67216;50.930;4.514;2023-02-07T16:05:36;6.70;55.50
55988;DHT22;67216;50.930;4.514;2023-02-07T16:08:27;6.40;55.40
55988;DHT22;67216;50.930;4.514;2023-02-07T16:10:53;6.40;54.70
55988;DHT22;67216;50.930;4.514;2023-02-07T16:13:23;6.20;54.40
55988;DHT22;67216;50.930;4.514;2023-02-07T16:18:41;6.10;54.70
55988;DHT22;67216;50.930;4.514;2023-02-07T16:21:33;6.00;55.30
55988;DHT22;67216;50.930;4.514;2023-02-07T16:24:05;6.10;55.30
55988;DHT22;67216;50.930;4.514;2023-02-07T16:26:37;6.00;55.60
55988;DHT22;67216;50.930;4.514;2023-02-07T16:29:04;6.00;55.70
55988;DHT22;67216;50.930;4.514;2023-02-07T16:31:31;5.90;55.80
55988;DHT22;67216;50.930;4.514;2023-02-07T16:33:58;6.00;55.80
55988;DHT22;67216;50.930;4.514;2023-02-07T16:36:23;5.80;56.50
55988;DHT22;67216;50.930;4.514;2023-02-07T16:38:51;5.60;57.40
55988;DHT22;67216;50.930;4.514;2023-02-07T16:41:26;5.70;57.50
55988;DHT22;67216;50.930;4.514;2023-02-07T16:43:59;5.50;57.80
55988;DHT22;67216;50.930;4.514;2023-02-07T16:46:27;5.40;58.30
55988;DHT22;67216;50.930;4.514;2023-02-07T16:48:54;5.20;58.90
55988;DHT22;67216;50.930;4.514;2023-02-07T16:51:20;5.20;59.10
55988;DHT22;67216;50.930;4.514;2023-02-07T16:53:49;5.10;59.30
55988;DHT22;67216;50.930;4.514;2023-02-07T16:56:24;5.20;59.70
55988;DHT22;67216;50.930;4.514;2023-02-07T16:58:50;5.20;59.50
55988;DHT22;67216;50.930;4.514;2023-02-07T17:01:20;5.10;59.70
55988;DHT22;67216;50.930;4.514;2023-02-07T17:03:49;4.90;60.00
55988;DHT22;67216;50.930;4.514;2023-02-07T17:06:17;4.80;60.80
55988;DHT22;67216;50.930;4.514;2023-02-07T17:08:43;4.70;62.30
55988;DHT22;67216;50.930;4.514;2023-02-07T17:11:16;4.60;63.20
55988;DHT22;67216;50.930;4.514;2023-02-07T17:13:45;4.60;63.60
55988;DHT22;67216;50.930;4.514;2023-02-07T17:16:11;4.60;64.00
55988;DHT22;67216;50.930;4.514;2023-02-07T17:18:38;4.60;64.10
55988;DHT22;67216;50.930;4.514;2023-02-07T17:21:04;4.50;64.20
55988;DHT22;67216;50.930;4.514;2023-02-07T17:23:35;4.40;64.70
55988;DHT22;67216;50.930;4.514;2023-02-07T17:26:02;4.40;64.30
55988;DHT22;67216;50.930;4.514;2023-02-07T17:28:28;4.20;64.40
55988;DHT22;67216;50.930;4.514;2023-02-07T17:30:53;4.00;65.20
55988;DHT22;67216;50.930;4.514;2023-02-07T17:33:21;4.10;65.80
55988;DHT22;67216;50.930;4.514;2023-02-07T17:35:46;4.10;66.20
55988;DHT22;67216;50.930;4.514;2023-02-07T17:38:12;4.30;66.20
55988;DHT22;67216;50.930;4.514;2023-02-07T17:40:39;4.10;65.50
55988;DHT22;67216;50.930;4.514;2023-02-07T17:43:05;4.10;65.60
55988;DHT22;67216;50.930;4.514;2023-02-07T17:45:35;3.90;65.20
55988;DHT22;67216;50.930;4.514;2023-02-07T17:48:04;3.20;67.30
55988;DHT22;67216;50.930;4.514;2023-02-07T17:50:34;3.10;68.10
55988;DHT22;67216;50.930;4.514;2023-02-07T17:53:01;3.30;66.90
55988;DHT22;67216;50.930;4.514;2023-02-07T17:55:29;3.30;66.60
55988;DHT22;67216;50.930;4.514;2023-02-07T17:57:55;3.30;66.80
55988;DHT22;67216;50.930;4.514;2023-02-07T18:00:29;3.30;67.20
55988;DHT22;67216;50.930;4.514;2023-02-07T18:02:55;3.40;67.30
55988;DHT22;67216;50.930;4.514;2023-02-07T18:05:22;3.30;67.70
55988;DHT22;67216;50.930;4.514;2023-02-07T18:07:49;3.10;68.70
55988;DHT22;67216;50.930;4.514;2023-02-07T18:10:24;3.10;68.60
55988;DHT22;67216;50.930;4.514;2023-02-07T18:12:50;3.30;67.90
55988;DHT22;67216;50.930;4.514;2023-02-07T18:15:17;3.60;67.00
55988;DHT22;67216;50.930;4.514;2023-02-07T18:17:45;3.60;66.80
55988;DHT22;67216;50.930;4.514;2023-02-07T18:20:23;3.60;66.50
55988;DHT22;67216;50.930;4.514;2023-02-07T18:22:51;3.60;66.40
55988;DHT22;67216;50.930;4.514;2023-02-07T18:25:20;3.50;66.60
55988;DHT22;67216;50.930;4.514;2023-02-07T18:27:45;3.20;67.70
55988;DHT22;67216;50.930;4.514;2023-02-07T18:30:13;3.40;67.50
55988;DHT22;67216;50.930;4.514;2023-02-07T18:32:39;3.60;66.70
55988;DHT22;67216;50.930;4.514;2023-02-07T18:35:06;3.90;65.70